KVPS/VPS METAR and TAF weather

Enter ICAO airport designator
Station Type Date Time Source
KVPS METAR 2019/05/27 09:55 UTC NOAA

KVPS 270955Z 00000KT 10SM CLR 22/20 A3003 RMK AO2A SLP166 T02200199 $


Station Type Date Time Source
KVPS Decoded METAR 2019/05/27 09:55 UTC NOAA

Valparaiso / Eglin Air Force Base, FL, United States (KVPS) 30-29N 086-31W 29M
May 27, 2019 - 05:55 AM EDT / 2019.05.27 0955 UTC
Wind: Calm:0
Visibility: 10 mile(s):0
Sky conditions: clear
Temperature: 71.6 F (22.0 C)
Dew Point: 67.8 F (19.9 C)
Relative Humidity: 87%
Pressure (altimeter): 30.03 in. Hg (1016 hPa)
ob: KVPS 270955Z 00000KT 10SM CLR 22/20 A3003 RMK AO2A SLP166 T02200199
cycle: 10

Station Type Date Time Source
KVPS TAF 2019/05/27 09:06 UTC NOAA

TAF TAF KVPS 270900Z 2709/2815 03005KT 9999 FEW050 FEW250 QNH3003INS WND 19010KT AFT 2615
BECMG 2802/2803 34005KT 9999 FEW045 FEW250 QNH2998INS WND 19010KT AFT 2614 TX34/2719Z TN23/2711Z

Example: see airport list